Time;durP1;ratioP1;P1;durP2;ratioP2;P2;SDS_P1;SDS_P2;PMS_P1;PMS_P2;Temp;Humidity;BMP_temperature;BMP_pressure;BME280_temperature;BME280_humidity;BME280_pressure;Samples;Min_cycle;Max_cycle;Signal;HPM_P1;HPM_P2
2023/05/04 00:00:19;;;;;;;8.23;5.03;;;13.30;56.40;;;;;;5062457;28;20031;-73
2023/05/04 00:02:45;;;;;;;11.18;4.97;;;13.30;56.20;;;;;;5063718;28;20027;-73
2023/05/04 00:05:11;;;;;;;8.35;5.50;;;13.30;56.20;;;;;;5062121;28;20048;-73
2023/05/04 00:07:37;;;;;;;7.90;5.05;;;13.30;56.10;;;;;;5062759;28;20048;-73
2023/05/04 00:10:03;;;;;;;9.15;4.82;;;13.30;56.20;;;;;;5063725;28;20552;-73
2023/05/04 00:12:29;;;;;;;11.43;5.68;;;13.30;56.30;;;;;;5060467;28;20471;-73
2023/05/04 00:14:55;;;;;;;15.80;6.82;;;13.30;56.60;;;;;;5063168;28;20032;-73
2023/05/04 00:17:21;;;;;;;14.80;5.55;;;13.20;56.50;;;;;;5060794;28;20458;-73
2023/05/04 00:19:47;;;;;;;11.63;5.85;;;13.20;56.30;;;;;;5063518;28;20104;-73
2023/05/04 00:22:12;;;;;;;15.90;6.03;;;13.20;56.30;;;;;;5061762;28;20078;-73
2023/05/04 00:24:38;;;;;;;8.80;5.30;;;13.20;56.70;;;;;;5062044;28;20136;-73
2023/05/04 00:27:04;;;;;;;7.60;5.00;;;13.20;56.70;;;;;;5063526;28;20103;-74
2023/05/04 00:29:30;;;;;;;12.65;5.05;;;13.20;56.50;;;;;;5060250;28;20017;-73
2023/05/04 00:31:55;;;;;;;10.00;5.07;;;13.10;56.50;;;;;;5064091;28;20103;-73
2023/05/04 00:34:21;;;;;;;11.05;5.60;;;13.10;56.30;;;;;;5062071;28;20074;-73
2023/05/04 00:36:47;;;;;;;17.10;5.28;;;13.10;56.40;;;;;;5061261;28;20036;-73
2023/05/04 00:39:13;;;;;;;14.02;5.35;;;13.10;56.30;;;;;;5062849;28;20545;-73
2023/05/04 00:41:39;;;;;;;10.57;5.18;;;13.10;56.60;;;;;;5062631;28;20382;-73
2023/05/04 00:44:05;;;;;;;8.73;5.38;;;13.10;56.70;;;;;;5063790;28;20029;-73
2023/05/04 00:46:32;;;;;;;10.98;5.25;;;13.00;56.60;;;;;;5061671;28;20024;-73
2023/05/04 00:48:58;;;;;;;10.77;5.00;;;13.00;56.40;;;;;;5062053;28;20054;-73
2023/05/04 00:51:25;;;;;;;7.25;4.50;;;13.00;56.50;;;;;;5060481;28;20037;-73
2023/05/04 00:53:53;;;;;;;9.43;5.38;;;13.00;56.60;;;;;;5060525;28;20017;-73
2023/05/04 00:56:23;;;;;;;6.05;4.50;;;12.90;56.80;;;;;;5061821;28;20025;-73
2023/05/04 00:58:53;;;;;;;6.70;4.95;;;12.90;56.80;;;;;;5063203;28;20023;-74
2023/05/04 01:01:22;;;;;;;6.78;4.57;;;12.90;57.00;;;;;;5061280;28;20421;-73
2023/05/04 01:03:53;;;;;;;8.38;4.30;;;12.80;56.80;;;;;;5060581;28;20028;-73
2023/05/04 01:06:32;;;;;;;8.20;4.97;;;12.80;56.70;;;;;;5060857;28;20070;-73
2023/05/04 01:09:03;;;;;;;8.30;4.40;;;12.80;57.10;;;;;;5061684;28;20017;-73
2023/05/04 01:11:51;;;;;;;13.98;5.80;;;12.70;56.80;;;;;;5060848;28;20021;-73
2023/05/04 01:14:19;;;;;;;13.15;5.85;;;12.70;57.10;;;;;;5061533;28;20021;-73
2023/05/04 01:16:46;;;;;;;8.70;4.70;;;12.70;57.40;;;;;;5061107;28;20099;-73
2023/05/04 01:19:11;;;;;;;15.05;6.68;;;12.70;57.10;;;;;;5062851;28;20024;-73
2023/05/04 01:21:37;;;;;;;14.30;5.88;;;12.60;57.40;;;;;;5061408;28;20044;-73
2023/05/04 01:24:05;;;;;;;11.80;5.35;;;12.60;57.40;;;;;;5061080;28;20120;-73
2023/05/04 01:26:38;;;;;;;19.42;6.47;;;12.60;57.30;;;;;;5060666;28;20075;-73
2023/05/04 01:29:10;;;;;;;10.77;5.82;;;12.60;57.30;;;;;;5060004;28;20082;-73
2023/05/04 01:31:37;;;;;;;14.73;5.40;;;12.60;57.30;;;;;;5061308;28;20374;-73
2023/05/04 01:34:05;;;;;;;13.00;5.88;;;12.50;57.40;;;;;;5064320;28;20033;-73
2023/05/04 01:36:32;;;;;;;15.18;5.40;;;12.50;57.50;;;;;;5060287;28;20059;-73
2023/05/04 01:38:58;;;;;;;16.65;5.05;;;12.40;57.50;;;;;;5054937;28;20033;-74
2023/05/04 01:41:25;;;;;;;8.93;4.60;;;12.40;57.60;;;;;;5066060;28;20086;-72
2023/05/04 01:43:53;;;;;;;9.45;4.75;;;12.40;57.70;;;;;;5076014;28;20257;-73
2023/05/04 01:46:19;;;;;;;7.28;4.22;;;12.40;57.60;;;;;;5075984;28;20508;-73
2023/05/04 01:48:44;;;;;;;6.75;3.60;;;12.40;57.20;;;;;;5075891;28;20056;-72
2023/05/04 01:51:10;;;;;;;7.38;3.85;;;12.40;57.20;;;;;;5075902;28;20021;-73
2023/05/04 01:53:36;;;;;;;9.10;4.32;;;12.40;57.30;;;;;;5072878;28;20535;-72
2023/05/04 01:56:02;;;;;;;6.15;3.83;;;12.40;57.50;;;;;;5070565;28;20360;-73
2023/05/04 01:58:28;;;;;;;5.78;3.50;;;12.40;57.40;;;;;;5054358;28;20056;-73
2023/05/04 02:00:54;;;;;;;9.63;4.20;;;12.40;57.10;;;;;;5055626;28;20032;-73
2023/05/04 02:03:20;;;;;;;8.45;3.67;;;12.40;56.90;;;;;;5055514;28;20027;-74
2023/05/04 02:05:46;;;;;;;8.77;3.55;;;12.40;56.60;;;;;;5059838;28;20020;-73
2023/05/04 02:08:11;;;;;;;12.85;4.95;;;12.40;56.50;;;;;;5075416;28;20028;-73
2023/05/04 02:10:37;;;;;;;4.65;3.58;;;12.30;56.70;;;;;;5075450;28;20031;-72
2023/05/04 02:13:03;;;;;;;5.93;3.03;;;12.30;56.50;;;;;;5075604;28;20031;-73
2023/05/04 02:15:28;;;;;;;5.57;3.72;;;12.30;56.50;;;;;;5076369;28;20047;-73
2023/05/04 02:17:54;;;;;;;11.45;3.90;;;12.30;56.90;;;;;;5076274;28;20036;-73
2023/05/04 02:20:20;;;;;;;6.28;3.70;;;12.20;56.90;;;;;;5076256;28;20066;-73
2023/05/04 02:22:46;;;;;;;4.07;3.33;;;12.20;56.80;;;;;;5075580;28;20028;-73
2023/05/04 02:25:11;;;;;;;8.27;4.07;;;12.20;56.80;;;;;;5055944;28;20049;-73
2023/05/04 02:27:37;;;;;;;5.35;3.65;;;12.20;56.70;;;;;;5056411;28;20425;-73
2023/05/04 02:30:04;;;;;;;6.03;3.60;;;12.20;56.70;;;;;;5056120;28;20059;-73
2023/05/04 02:32:30;;;;;;;4.78;3.30;;;12.20;56.60;;;;;;5055834;28;20025;-73
2023/05/04 02:34:55;;;;;;;12.93;3.95;;;12.20;56.40;;;;;;5054709;28;20027;-73
2023/05/04 02:37:21;;;;;;;7.57;3.97;;;12.10;56.30;;;;;;5055917;28;20075;-73
2023/05/04 02:39:47;;;;;;;9.30;4.32;;;12.10;56.40;;;;;;5055978;28;20044;-73
2023/05/04 02:42:13;;;;;;;7.20;4.05;;;12.10;56.40;;;;;;5054485;28;20482;-73
2023/05/04 02:44:39;;;;;;;9.30;4.20;;;12.10;56.30;;;;;;5055672;28;20021;-73
2023/05/04 02:47:05;;;;;;;5.00;3.45;;;12.10;56.50;;;;;;5055955;28;20382;-74
2023/05/04 02:49:30;;;;;;;8.52;3.88;;;12.00;56.50;;;;;;5055764;28;20021;-73
2023/05/04 02:51:56;;;;;;;6.95;3.10;;;12.00;56.60;;;;;;5055671;28;20035;-73
2023/05/04 02:54:22;;;;;;;5.47;3.63;;;12.00;56.60;;;;;;5055817;28;20037;-74
2023/05/04 02:56:48;;;;;;;4.80;3.30;;;12.00;56.60;;;;;;5054311;28;20025;-73
2023/05/04 02:59:13;;;;;;;9.20;3.72;;;12.00;56.50;;;;;;5055530;28;20029;-73
2023/05/04 03:01:39;;;;;;;7.03;3.80;;;12.00;56.70;;;;;;5055600;28;20025;-73
2023/05/04 03:04:06;;;;;;;6.47;4.05;;;11.90;56.70;;;;;;5055448;28;20043;-74
2023/05/04 03:06:32;;;;;;;17.35;4.35;;;11.90;56.80;;;;;;5054100;28;20028;-73
2023/05/04 03:08:58;;;;;;;10.55;3.60;;;11.90;56.80;;;;;;5055360;28;20074;-73
2023/05/04 03:11:24;;;;;;;8.55;4.15;;;11.90;56.80;;;;;;5055261;28;20119;-73
2023/05/04 03:13:50;;;;;;;8.63;3.70;;;11.90;56.80;;;;;;5056751;28;20454;-74
2023/05/04 03:16:16;;;;;;;10.18;4.18;;;11.90;56.90;;;;;;5075166;28;20097;-73
2023/05/04 03:18:42;;;;;;;6.97;3.92;;;11.90;56.90;;;;;;5075110;28;20029;-73
2023/05/04 03:21:08;;;;;;;8.23;4.35;;;11.90;56.90;;;;;;5075046;28;20032;-73
2023/05/04 03:23:33;;;;;;;9.02;4.65;;;11.80;57.00;;;;;;5068321;28;20048;-74
2023/05/04 03:25:59;;;;;;;6.75;3.80;;;11.80;57.00;;;;;;5055148;28;20029;-73
2023/05/04 03:28:25;;;;;;;12.32;4.82;;;11.80;56.90;;;;;;5054939;28;20021;-73
2023/05/04 03:30:51;;;;;;;6.88;3.92;;;11.80;56.90;;;;;;5054824;28;20036;-73
2023/05/04 03:33:19;;;;;;;7.28;3.63;;;11.80;56.90;;;;;;5055348;28;20017;-73
2023/05/04 03:35:45;;;;;;;8.82;4.38;;;11.80;56.80;;;;;;5057512;28;20071;-73
2023/05/04 03:38:11;;;;;;;6.45;4.13;;;11.80;56.80;;;;;;5074617;28;20052;-73
2023/05/04 03:40:37;;;;;;;8.82;5.13;;;11.80;56.90;;;;;;5074494;28;20082;-73
2023/05/04 03:43:03;;;;;;;10.63;4.93;;;11.80;57.10;;;;;;5073284;28;20029;-74
2023/05/04 03:45:28;;;;;;;6.50;4.55;;;11.70;57.20;;;;;;5073284;28;20021;-74
2023/05/04 03:47:54;;;;;;;4.53;3.83;;;11.70;57.20;;;;;;5074351;28;20027;-74
2023/05/04 03:50:23;;;;;;;6.22;3.63;;;11.70;57.20;;;;;;5073097;28;20028;-73
2023/05/04 03:52:49;;;;;;;5.80;3.97;;;11.70;57.20;;;;;;5074309;28;20025;-74
2023/05/04 03:55:15;;;;;;;6.15;4.45;;;11.70;57.20;;;;;;5062106;28;20389;-73
2023/05/04 03:57:40;;;;;;;11.60;4.78;;;11.80;57.20;;;;;;5073535;28;20074;-74
2023/05/04 04:00:07;;;;;;;8.60;4.78;;;11.70;57.30;;;;;;5074101;28;20060;-74
2023/05/04 04:02:33;;;;;;;8.05;4.78;;;11.70;57.30;;;;;;5074155;28;20047;-74
2023/05/04 04:04:59;;;;;;;6.63;4.18;;;11.80;57.30;;;;;;5074232;28;20473;-73
2023/05/04 04:07:25;;;;;;;5.97;3.88;;;11.70;57.30;;;;;;5074071;28;20052;-73
2023/05/04 04:09:51;;;;;;;5.35;3.85;;;11.70;57.40;;;;;;5074099;28;20028;-74
2023/05/04 04:12:19;;;;;;;9.52;5.07;;;11.80;57.40;;;;;;5074085;28;20028;-74
2023/05/04 04:14:47;;;;;;;11.57;4.75;;;11.80;57.60;;;;;;5073954;28;20512;-74
2023/05/04 04:17:13;;;;;;;9.38;5.10;;;11.70;57.90;;;;;;5073819;28;20020;-74
2023/05/04 04:19:39;;;;;;;9.65;4.88;;;11.70;57.90;;;;;;5073898;28;20031;-73
2023/05/04 04:22:05;;;;;;;7.80;4.60;;;11.70;58.00;;;;;;5073868;28;20017;-73
2023/05/04 04:24:31;;;;;;;8.07;4.18;;;11.70;58.10;;;;;;5072764;28;20174;-74
2023/05/04 04:26:56;;;;;;;5.47;4.20;;;11.70;58.00;;;;;;5072609;28;20343;-77
2023/05/04 04:29:22;;;;;;;8.10;4.10;;;11.80;57.90;;;;;;5072551;28;20020;-77
2023/05/04 04:31:48;;;;;;;9.05;4.65;;;11.80;57.90;;;;;;5073572;28;20481;-75
2023/05/04 04:34:14;;;;;;;6.55;4.53;;;11.90;58.00;;;;;;5072357;28;20028;-78
2023/05/04 04:36:39;;;;;;;15.07;5.88;;;11.90;58.00;;;;;;5073612;28;20020;-81
2023/05/04 04:39:05;;;;;;;11.30;4.88;;;11.90;58.20;;;;;;5073828;28;20028;-74
2023/05/04 04:41:31;;;;;;;7.03;4.50;;;12.00;58.20;;;;;;5073735;28;20034;-74
2023/05/04 04:43:57;;;;;;;13.02;5.28;;;12.00;58.10;;;;;;5072830;28;20393;-77
2023/05/04 04:46:23;;;;;;;9.23;4.65;;;12.10;58.10;;;;;;5075806;28;20023;-78
2023/05/04 04:48:49;;;;;;;10.43;5.07;;;12.10;58.10;;;;;;5075186;28;20029;-74
2023/05/04 04:51:14;;;;;;;7.40;4.68;;;12.20;58.10;;;;;;5073908;28;20024;-74
2023/05/04 04:53:40;;;;;;;7.70;4.30;;;12.20;58.10;;;;;;5064295;28;20374;-74
2023/05/04 04:56:06;;;;;;;5.55;3.83;;;12.30;58.00;;;;;;5053397;28;20036;-75
2023/05/04 04:58:32;;;;;;;8.85;4.85;;;12.40;57.90;;;;;;5053480;28;20029;-74
2023/05/04 05:00:58;;;;;;;7.47;4.60;;;12.40;57.90;;;;;;5053342;28;20493;-75
2023/05/04 05:03:24;;;;;;;7.57;4.47;;;12.50;57.90;;;;;;5052675;28;20033;-76
2023/05/04 05:05:50;;;;;;;7.90;5.22;;;12.60;58.00;;;;;;5061615;28;20110;-75
2023/05/04 05:08:16;;;;;;;13.65;5.45;;;12.60;57.90;;;;;;5062294;28;20025;-76
2023/05/04 05:10:42;;;;;;;8.05;5.00;;;12.70;57.90;;;;;;5060663;28;20025;-75
2023/05/04 05:13:08;;;;;;;14.63;5.85;;;12.70;57.90;;;;;;5061955;28;20040;-75
2023/05/04 05:15:34;;;;;;;13.98;6.03;;;12.80;58.10;;;;;;5063064;28;20017;-75
2023/05/04 05:18:00;;;;;;;8.80;6.03;;;12.90;58.10;;;;;;5060627;28;20029;-75
2023/05/04 05:20:26;;;;;;;9.77;6.78;;;12.90;58.00;;;;;;5060968;28;20407;-75
2023/05/04 05:22:52;;;;;;;10.43;7.00;;;13.00;57.90;;;;;;5070647;28;20028;-76
2023/05/04 05:25:18;;;;;;;11.20;6.43;;;13.10;57.60;;;;;;5072372;28;20116;-76
2023/05/04 05:27:44;;;;;;;13.05;6.28;;;13.10;57.30;;;;;;5072810;28;20021;-76
2023/05/04 05:30:10;;;;;;;15.48;7.10;;;13.20;57.20;;;;;;5072768;28;20501;-76
2023/05/04 05:32:37;;;;;;;15.73;6.95;;;13.30;57.00;;;;;;5071543;28;20029;-75
2023/05/04 05:35:04;;;;;;;12.73;6.32;;;13.30;57.00;;;;;;5072696;28;20021;-76
2023/05/04 05:37:31;;;;;;;10.90;7.20;;;13.40;57.00;;;;;;5071487;28;20033;-75
2023/05/04 05:39:57;;;;;;;12.70;6.60;;;13.50;56.70;;;;;;5071584;28;20029;-75
2023/05/04 05:42:22;;;;;;;13.35;6.85;;;13.50;56.40;;;;;;5072664;28;20081;-75
2023/05/04 05:44:48;;;;;;;9.95;6.00;;;13.60;56.50;;;;;;5072822;28;20027;-75
2023/05/04 05:47:14;;;;;;;11.18;6.85;;;13.70;56.60;;;;;;5072998;28;20024;-75
2023/05/04 05:49:40;;;;;;;11.05;6.68;;;13.80;56.40;;;;;;5072790;28;20442;-75
2023/05/04 05:52:06;;;;;;;9.40;6.00;;;13.90;56.30;;;;;;5072773;28;20034;-75
2023/05/04 05:54:34;;;;;;;11.73;6.60;;;13.90;56.20;;;;;;5056848;28;20497;-76
2023/05/04 05:57:00;;;;;;;11.48;6.57;;;14.00;55.90;;;;;;5051365;28;20466;-75
2023/05/04 05:59:26;;;;;;;16.58;7.35;;;14.10;55.50;;;;;;5052595;28;20147;-75
2023/05/04 06:01:52;;;;;;;12.27;6.38;;;14.20;55.10;;;;;;5052565;28;20024;-76
2023/05/04 06:04:18;;;;;;;10.43;6.15;;;14.20;54.80;;;;;;5052644;28;20021;-76
2023/05/04 06:06:44;;;;;;;12.57;5.75;;;14.30;54.90;;;;;;5051267;28;20107;-75
2023/05/04 06:09:09;;;;;;;13.52;5.95;;;14.40;54.50;;;;;;5051292;28;20018;-75
2023/05/04 06:11:35;;;;;;;11.77;5.75;;;14.50;54.20;;;;;;5052821;28;20104;-75
2023/05/04 06:14:01;;;;;;;9.60;4.78;;;14.60;54.00;;;;;;5051303;28;20025;-75
2023/05/04 06:16:27;;;;;;;8.43;4.68;;;14.60;54.20;;;;;;5052764;28;20025;-76
2023/05/04 06:18:52;;;;;;;13.13;6.45;;;14.70;53.80;;;;;;5052350;28;20045;-75
2023/05/04 06:21:18;;;;;;;13.65;6.25;;;14.80;53.00;;;;;;5054917;28;20039;-76
2023/05/04 06:23:44;;;;;;;8.98;5.80;;;14.80;52.80;;;;;;5055501;28;20041;-76
2023/05/04 06:26:10;;;;;;;8.40;4.75;;;14.90;52.60;;;;;;5056059;28;20067;-77
2023/05/04 06:28:36;;;;;;;13.07;6.00;;;15.00;53.00;;;;;;5054480;28;20362;-76
2023/05/04 06:31:02;;;;;;;11.88;6.25;;;15.00;52.40;;;;;;5055840;28;20025;-75
2023/05/04 06:33:28;;;;;;;14.30;5.85;;;15.00;52.10;;;;;;5057253;28;20485;-76
2023/05/04 06:35:54;;;;;;;14.15;5.93;;;15.10;51.90;;;;;;5075734;28;20020;-76
2023/05/04 06:38:20;;;;;;;9.75;4.85;;;15.10;51.90;;;;;;5074303;28;20025;-76
2023/05/04 06:40:46;;;;;;;18.60;6.43;;;15.20;52.50;;;;;;5074446;28;20025;-75
2023/05/04 06:43:12;;;;;;;11.35;6.00;;;15.30;52.00;;;;;;5075575;28;20056;-76
2023/05/04 06:45:38;;;;;;;11.57;5.95;;;15.40;51.60;;;;;;5074335;28;20048;-76
2023/05/04 06:48:04;;;;;;;13.77;6.18;;;15.40;51.70;;;;;;5075624;28;20073;-75
2023/05/04 06:50:32;;;;;;;12.85;6.75;;;15.50;51.20;;;;;;5075601;28;20050;-76
2023/05/04 06:53:06;;;;;;;10.95;6.70;;;15.50;51.90;;;;;;5073167;28;20085;-77
2023/05/04 06:55:32;;;;;;;11.95;6.78;;;15.60;51.40;;;;;;5075746;28;20039;-75
2023/05/04 06:57:58;;;;;;;15.18;7.38;;;15.70;51.70;;;;;;5074025;28;20024;-74
2023/05/04 07:00:24;;;;;;;11.25;6.95;;;15.80;51.30;;;;;;5074010;28;20024;-75
2023/05/04 07:02:52;;;;;;;9.77;6.38;;;15.80;51.10;;;;;;5073833;28;20025;-76
2023/05/04 07:05:19;;;;;;;11.82;6.15;;;15.90;51.40;;;;;;5075187;28;20020;-75
2023/05/04 07:07:45;;;;;;;12.40;7.03;;;15.90;50.70;;;;;;5075102;28;20379;-75
2023/05/04 07:10:11;;;;;;;12.75;7.43;;;16.00;50.40;;;;;;5075371;28;20020;-75
2023/05/04 07:12:37;;;;;;;12.38;5.88;;;16.00;50.40;;;;;;5075183;28;20039;-75
2023/05/04 07:15:03;;;;;;;9.88;6.32;;;16.10;50.70;;;;;;5075186;28;20020;-75
2023/05/04 07:17:31;;;;;;;12.60;7.32;;;16.10;50.40;;;;;;5073458;28;20036;-75
2023/05/04 07:19:57;;;;;;;11.15;6.78;;;16.20;50.30;;;;;;5074714;28;20103;-75
2023/05/04 07:22:22;;;;;;;10.93;6.30;;;16.30;50.50;;;;;;5075127;28;20135;-75
2023/05/04 07:24:48;;;;;;;11.15;7.10;;;16.30;50.20;;;;;;5055406;28;20041;-77
2023/05/04 07:27:14;;;;;;;11.25;5.88;;;16.30;49.90;;;;;;5053958;28;20025;-75
2023/05/04 07:29:40;;;;;;;9.90;5.88;;;16.40;50.40;;;;;;5053365;28;20024;-76
2023/05/04 07:32:06;;;;;;;10.02;5.53;;;16.50;50.20;;;;;;5054801;28;20032;-75
2023/05/04 07:34:33;;;;;;;11.32;7.18;;;16.60;50.30;;;;;;5073224;28;20474;-75
2023/05/04 07:36:59;;;;;;;12.27;7.13;;;16.70;50.40;;;;;;5073041;28;20394;-76
2023/05/04 07:39:25;;;;;;;13.07;7.85;;;16.70;50.10;;;;;;5074671;28;20025;-75
2023/05/04 07:41:51;;;;;;;13.80;6.90;;;16.70;49.10;;;;;;5074210;28;20029;-75
2023/05/04 07:44:17;;;;;;;16.42;7.35;;;16.80;49.40;;;;;;5074344;28;20017;-76
2023/05/04 07:46:42;;;;;;;12.52;7.47;;;16.80;48.60;;;;;;5072769;28;20035;-76
2023/05/04 07:49:08;;;;;;;14.82;7.50;;;16.80;49.40;;;;;;5074272;28;20023;-76
2023/05/04 07:51:35;;;;;;;9.90;6.90;;;16.90;48.70;;;;;;5072930;28;20024;-76
2023/05/04 07:54:00;;;;;;;8.30;5.32;;;16.90;48.40;;;;;;5060602;28;20035;-76
2023/05/04 07:56:26;;;;;;;11.93;6.43;;;17.00;49.00;;;;;;5054049;28;20476;-76
2023/05/04 07:58:52;;;;;;;10.45;5.88;;;17.00;48.60;;;;;;5054340;28;20021;-75
2023/05/04 08:01:25;;;;;;;12.98;6.45;;;17.10;48.70;;;;;;5054120;28;20099;-76
2023/05/04 08:03:51;;;;;;;12.57;7.43;;;17.20;48.70;;;;;;5052592;28;20083;-76
2023/05/04 08:06:17;;;;;;;11.35;7.38;;;17.30;48.90;;;;;;5054130;28;20036;-75
2023/05/04 08:08:43;;;;;;;9.80;6.15;;;17.30;48.90;;;;;;5053847;28;20025;-76
2023/05/04 08:11:13;;;;;;;19.67;7.05;;;17.40;48.60;;;;;;5052653;28;20017;-76
2023/05/04 08:13:40;;;;;;;13.45;7.35;;;17.40;47.60;;;;;;5054168;28;20025;-75
2023/05/04 08:16:06;;;;;;;10.90;6.57;;;17.50;47.80;;;;;;5052730;28;20020;-76
2023/05/04 08:18:32;;;;;;;11.68;7.30;;;17.60;47.90;;;;;;5052806;28;20111;-76
2023/05/04 08:20:57;;;;;;;11.90;6.90;;;17.60;48.10;;;;;;5052462;28;20224;-75
2023/05/04 08:23:23;;;;;;;12.45;6.25;;;17.70;48.10;;;;;;5059804;28;20029;-75
2023/05/04 08:25:49;;;;;;;9.00;5.53;;;17.80;47.20;;;;;;5073559;28;20045;-76
2023/05/04 08:28:15;;;;;;;10.18;6.80;;;17.80;47.20;;;;;;5073849;28;20377;-76
2023/05/04 08:30:41;;;;;;;10.18;6.40;;;17.90;46.50;;;;;;5073655;28;20024;-75
2023/05/04 08:33:07;;;;;;;12.38;6.60;;;17.90;46.70;;;;;;5072474;28;20024;-75
2023/05/04 08:35:33;;;;;;;10.43;5.95;;;17.90;45.90;;;;;;5074020;28;20056;-75
2023/05/04 08:38:00;;;;;;;16.63;7.03;;;18.00;46.40;;;;;;5073654;28;20048;-76
2023/05/04 08:40:26;;;;;;;10.93;6.40;;;18.10;45.60;;;;;;5072366;28;20032;-75
2023/05/04 08:42:52;;;;;;;12.32;6.18;;;18.10;45.40;;;;;;5073264;28;20478;-75
2023/05/04 08:45:18;;;;;;;11.88;5.93;;;18.10;45.60;;;;;;5073457;28;20021;-75
2023/05/04 08:47:44;;;;;;;13.60;6.00;;;18.20;45.40;;;;;;5072233;28;20024;-75
2023/05/04 08:50:10;;;;;;;14.52;6.95;;;18.20;44.20;;;;;;5072201;28;20103;-75
2023/05/04 08:52:37;;;;;;;11.32;5.80;;;18.20;44.40;;;;;;5071837;28;20377;-75
2023/05/04 08:55:04;;;;;;;14.48;5.70;;;18.30;44.30;;;;;;5053327;28;20405;-75
2023/05/04 08:57:32;;;;;;;9.70;5.63;;;18.40;44.70;;;;;;5053416;28;20383;-75
2023/05/04 09:00:00;;;;;;;12.75;5.75;;;18.40;44.70;;;;;;5051937;28;20052;-76
2023/05/04 09:02:26;;;;;;;11.35;5.72;;;18.40;43.80;;;;;;5053419;28;20044;-76
2023/05/04 09:04:53;;;;;;;11.52;6.35;;;18.50;44.80;;;;;;5053648;28;20140;-76
2023/05/04 09:07:20;;;;;;;10.88;5.13;;;18.60;44.50;;;;;;5051881;28;20051;-76
2023/05/04 09:09:47;;;;;;;9.73;5.55;;;18.70;44.10;;;;;;5053166;28;20017;-75
2023/05/04 09:12:13;;;;;;;13.43;6.10;;;18.70;43.30;;;;;;5053457;28;20021;-76
2023/05/04 09:14:40;;;;;;;16.27;7.10;;;18.70;42.90;;;;;;5053160;28;20167;-76
2023/05/04 09:17:24;;;;;;;7.22;5.35;;;18.70;42.20;;;;;;5051864;28;20585;-77
2023/05/04 09:20:00;;;;;;;15.48;5.82;;;18.70;42.90;;;;;;5051963;28;20093;-76
2023/05/04 09:22:27;;;;;;;10.00;5.50;;;18.80;43.30;;;;;;5051773;28;20025;-76
2023/05/04 09:25:14;;;;;;;9.52;5.47;;;18.90;43.40;;;;;;5052967;28;20056;-75
2023/05/04 09:27:51;;;;;;;9.10;4.63;;;18.90;42.30;;;;;;5051723;28;20114;-75
2023/05/04 09:30:20;;;;;;;9.27;5.50;;;18.90;41.90;;;;;;5062566;28;20025;-76
2023/05/04 09:32:48;;;;;;;12.07;5.75;;;19.00;41.80;;;;;;5071847;28;20120;-78
2023/05/04 09:35:16;;;;;;;9.45;5.18;;;19.00;42.00;;;;;;5073109;28;20025;-75
2023/05/04 09:37:44;;;;;;;8.65;4.65;;;19.00;41.60;;;;;;5073250;28;20031;-75
2023/05/04 09:40:11;;;;;;;10.15;5.00;;;19.10;42.00;;;;;;5071797;28;20021;-75
2023/05/04 09:42:37;;;;;;;11.32;4.97;;;19.10;41.40;;;;;;5072897;28;20491;-75
2023/05/04 09:45:05;;;;;;;9.63;4.85;;;19.10;41.90;;;;;;5071675;28;20116;-75
2023/05/04 09:47:33;;;;;;;8.15;4.95;;;19.20;41.70;;;;;;5071797;28;20521;-75
2023/05/04 09:50:09;;;;;;;8.63;5.00;;;19.20;41.20;;;;;;5072964;28;20049;-75
2023/05/04 09:52:36;;;;;;;11.88;5.15;;;19.30;41.60;;;;;;5069473;28;20017;-75
2023/05/04 09:55:03;;;;;;;12.55;5.10;;;19.30;41.10;;;;;;5053556;28;20486;-76
2023/05/04 09:57:29;;;;;;;8.25;5.13;;;19.30;40.30;;;;;;5056983;28;20033;-76
2023/05/04 09:59:55;;;;;;;12.75;5.65;;;19.30;41.10;;;;;;5055233;28;20028;-77
2023/05/04 10:02:21;;;;;;;9.55;5.85;;;19.40;41.80;;;;;;5056512;28;20032;-76
2023/05/04 10:04:49;;;;;;;10.20;4.75;;;19.40;41.10;;;;;;5056671;28;20025;-75
2023/05/04 10:07:16;;;;;;;18.45;5.93;;;19.50;41.10;;;;;;5056298;28;20025;-76
2023/05/04 10:09:42;;;;;;;6.32;4.72;;;19.60;41.00;;;;;;5056495;28;20029;-76
2023/05/04 10:12:08;;;;;;;8.30;5.05;;;19.60;40.90;;;;;;5056755;28;20481;-76
2023/05/04 10:14:34;;;;;;;10.00;5.53;;;19.70;40.60;;;;;;5056239;28;20095;-77
2023/05/04 10:17:43;;;;;;;10.13;4.88;;;19.70;40.90;;;;;;5056572;28;20163;-76
2023/05/04 10:20:20;;;;;;;10.80;6.03;;;19.80;40.50;;;;;;5020293;28;20117;-76
2023/05/04 10:23:27;;;;;;;11.07;4.70;;;19.90;39.70;;;;;;5055870;28;20115;-76
2023/05/04 10:26:02;;;;;;;9.05;5.30;;;19.90;40.60;;;;;;5054748;28;20485;-76
2023/05/04 10:28:36;;;;;;;11.93;4.95;;;20.00;40.80;;;;;;5062119;28;20116;-75
2023/05/04 10:31:06;;;;;;;9.15;5.10;;;20.00;40.10;;;;;;5075200;28;20038;-76
2023/05/04 10:33:39;;;;;;;9.00;5.93;;;20.10;40.50;;;;;;5074712;28;20037;-76
2023/05/04 10:36:05;;;;;;;9.65;5.35;;;20.10;40.30;;;;;;5075801;28;20032;-76
2023/05/04 10:38:34;;;;;;;14.82;5.63;;;20.20;40.30;;;;;;5074599;28;20036;-76
2023/05/04 10:41:00;;;;;;;9.05;4.75;;;20.30;40.00;;;;;;5074596;28;20032;-76
2023/05/04 10:43:28;;;;;;;8.82;5.40;;;20.40;40.50;;;;;;5075798;28;20075;-76
2023/05/04 10:45:56;;;;;;;11.90;5.80;;;20.50;40.70;;;;;;5075522;28;20021;-76
2023/05/04 10:48:33;;;;;;;13.50;5.22;;;20.50;40.00;;;;;;5075772;28;20032;-76
2023/05/04 10:51:00;;;;;;;7.90;5.78;;;20.50;39.60;;;;;;5076003;28;20052;-76
2023/05/04 10:53:32;;;;;;;8.20;5.43;;;20.60;38.50;;;;;;5064145;28;20123;-76
2023/05/04 10:55:58;;;;;;;8.27;4.85;;;20.60;38.70;;;;;;5054083;28;20509;-77
2023/05/04 10:58:28;;;;;;;9.00;4.60;;;20.70;38.80;;;;;;5055550;28;20037;-76
2023/05/04 11:00:53;;;;;;;7.30;4.68;;;20.80;38.90;;;;;;5054127;28;20021;-76
2023/05/04 11:03:21;;;;;;;9.10;5.38;;;20.90;38.90;;;;;;5055645;28;20025;-74
2023/05/04 11:05:54;;;;;;;10.07;5.75;;;20.90;38.90;;;;;;5054097;28;20497;-75
2023/05/04 11:08:24;;;;;;;6.32;4.45;;;21.00;37.80;;;;;;5054146;28;20104;-75
2023/05/04 11:11:05;;;;;;;9.65;5.57;;;21.00;38.10;;;;;;5055407;28;20470;-75
2023/05/04 11:13:40;;;;;;;8.52;4.72;;;21.00;38.30;;;;;;5055522;28;20021;-75
2023/05/04 11:16:05;;;;;;;6.82;4.38;;;21.10;38.50;;;;;;5054104;28;20052;-74
2023/05/04 11:18:36;;;;;;;13.65;5.43;;;21.20;38.30;;;;;;5055162;28;20521;-75
2023/05/04 11:21:02;;;;;;;8.50;4.93;;;21.20;36.90;;;;;;5053656;28;20394;-75
2023/05/04 11:23:29;;;;;;;6.90;4.25;;;21.30;37.20;;;;;;5053319;28;20036;-75
2023/05/04 11:25:55;;;;;;;8.43;4.68;;;21.30;36.50;;;;;;5054750;28;20056;-74
2023/05/04 11:28:37;;;;;;;6.78;3.80;;;21.30;36.60;;;;;;5073122;28;20028;-74
2023/05/04 11:31:23;;;;;;;9.15;4.57;;;21.40;36.20;;;;;;5073503;28;20024;-75
2023/05/04 11:33:53;;;;;;;7.55;4.78;;;21.50;36.60;;;;;;5074827;28;20037;-75
2023/05/04 11:36:21;;;;;;;11.70;5.13;;;21.60;36.90;;;;;;5074824;28;20066;-75
2023/05/04 11:38:47;;;;;;;10.50;4.57;;;21.60;36.50;;;;;;5074772;28;20381;-75
2023/05/04 11:41:13;;;;;;;8.13;4.63;;;21.60;36.20;;;;;;5074739;28;20522;-75
2023/05/04 11:43:41;;;;;;;12.20;5.22;;;21.70;36.30;;;;;;5074785;28;20116;-75
2023/05/04 11:46:07;;;;;;;7.55;4.18;;;21.70;36.70;;;;;;5074527;28;20470;-75
2023/05/04 11:48:53;;;;;;;13.82;5.68;;;21.80;36.70;;;;;;5074563;28;20017;-75
2023/05/04 11:51:23;;;;;;;10.80;5.28;;;21.80;36.00;;;;;;5074316;28;20094;-75
2023/05/04 11:53:50;;;;;;;7.45;3.95;;;21.80;35.70;;;;;;5061509;28;20055;-75
2023/05/04 11:56:15;;;;;;;9.65;4.60;;;21.90;36.10;;;;;;5052796;28;20040;-75
2023/05/04 11:58:41;;;;;;;10.82;4.22;;;21.90;35.70;;;;;;5054269;28;20063;-76
2023/05/04 12:01:07;;;;;;;8.70;4.32;;;22.00;36.30;;;;;;5054439;28;20025;-75
2023/05/04 12:03:38;;;;;;;9.30;4.95;;;22.10;36.40;;;;;;5054436;28;20032;-75
2023/05/04 12:06:04;;;;;;;11.40;5.00;;;22.10;35.80;;;;;;5052924;28;20027;-75
2023/05/04 12:08:34;;;;;;;8.43;5.15;;;22.20;36.20;;;;;;5054324;28;20041;-75
2023/05/04 12:11:12;;;;;;;14.30;5.47;;;22.20;34.80;;;;;;5054080;28;20060;-75
2023/05/04 12:13:40;;;;;;;9.73;4.82;;;22.10;33.80;;;;;;5053972;28;20021;-75
2023/05/04 12:16:08;;;;;;;7.80;4.32;;;22.10;34.20;;;;;;5053973;28;20107;-75
2023/05/04 12:18:35;;;;;;;8.85;5.03;;;22.10;35.50;;;;;;5051957;28;20024;-76
2023/05/04 12:21:12;;;;;;;7.18;3.97;;;22.10;35.00;;;;;;5052452;28;20038;-76
2023/05/04 12:23:40;;;;;;;9.40;5.03;;;22.20;34.70;;;;;;5052000;28;20386;-77
2023/05/04 12:26:07;;;;;;;8.00;4.28;;;22.20;34.90;;;;;;5065353;28;20422;-77
2023/05/04 12:28:35;;;;;;;11.23;5.50;;;22.20;35.50;;;;;;5073695;28;20551;-76
2023/05/04 12:31:01;;;;;;;7.50;4.15;;;22.20;35.10;;;;;;5073836;28;20042;-76
2023/05/04 12:33:27;;;;;;;6.00;3.95;;;22.30;35.50;;;;;;5073213;28;20036;-75
2023/05/04 12:35:53;;;;;;;6.70;4.30;;;22.40;35.80;;;;;;5071829;28;20021;-74
2023/05/04 12:38:20;;;;;;;6.53;5.03;;;22.50;35.90;;;;;;5073524;28;20024;-75
2023/05/04 12:40:46;;;;;;;9.10;4.75;;;22.50;35.20;;;;;;5073306;28;20129;-75
2023/05/04 12:43:11;;;;;;;8.50;5.07;;;22.60;35.90;;;;;;5073081;28;20493;-76